Nathrop, Colorado
Current Conditions -  °F | °C
As of 9:15 PM on Tuesday 27 Jan 2015 (Local Time) from KAEJ Reporting Station
Clear Clear  
Wind Chill: 30°   Ceiling: Unl
Heat Index: 30°   Visibility: 10mi
Dew Point: 22°   Wind: 3mph
Humidity: 74%   Direction: 280°W
Pressure: 30.22"   Gusts: NA
Location:  38.75°N, 106.08°W
Report Text: KAEJ 280415Z AUTO 28003KT 10SM CLR M01/M05 A3022 RMK AO2 T10131054
Loading
Personal Weather Stations






























Interactive Weather Map New forecast layout! Learn more

10-Day Weather Forecast

Advertisements
Track Severe Weather on mobile